sensor_id;sensor_type;location;lat;lon;timestamp;P1;durP1;ratioP1;P2;durP2;ratioP2
64894;SDS011;51588;53.702;10.208;2024-01-11T00:01:51;2.00;;;1.90;;
64894;SDS011;51588;53.702;10.208;2024-01-11T00:04:20;2.27;;;2.07;;
64894;SDS011;51588;53.702;10.208;2024-01-11T00:06:47;2.17;;;2.00;;
64894;SDS011;51588;53.702;10.208;2024-01-11T00:09:13;2.30;;;2.10;;
64894;SDS011;51588;53.702;10.208;2024-01-11T00:11:39;2.77;;;1.97;;
64894;SDS011;51588;53.702;10.208;2024-01-11T00:14:06;2.20;;;2.00;;
64894;SDS011;51588;53.702;10.208;2024-01-11T00:16:38;2.23;;;2.00;;
64894;SDS011;51588;53.702;10.208;2024-01-11T00:19:05;2.20;;;2.03;;
64894;SDS011;51588;53.702;10.208;2024-01-11T00:21:31;2.80;;;1.93;;
64894;SDS011;51588;53.702;10.208;2024-01-11T00:23:57;2.40;;;2.20;;
64894;SDS011;51588;53.702;10.208;2024-01-11T00:26:24;2.40;;;2.20;;
64894;SDS011;51588;53.702;10.208;2024-01-11T00:28:50;2.30;;;2.10;;
64894;SDS011;51588;53.702;10.208;2024-01-11T00:31:16;2.77;;;2.23;;
64894;SDS011;51588;53.702;10.208;2024-01-11T00:33:44;2.30;;;2.10;;
64894;SDS011;51588;53.702;10.208;2024-01-11T00:36:11;2.10;;;1.90;;
64894;SDS011;51588;53.702;10.208;2024-01-11T00:38:43;2.07;;;1.90;;
64894;SDS011;51588;53.702;10.208;2024-01-11T00:41:12;2.27;;;2.07;;
64894;SDS011;51588;53.702;10.208;2024-01-11T00:43:41;2.23;;;2.03;;
64894;SDS011;51588;53.702;10.208;2024-01-11T00:46:13;3.10;;;2.40;;
64894;SDS011;51588;53.702;10.208;2024-01-11T00:48:40;3.50;;;2.40;;
64894;SDS011;51588;53.702;10.208;2024-01-11T00:51:10;2.03;;;1.83;;
64894;SDS011;51588;53.702;10.208;2024-01-11T00:53:37;2.30;;;2.10;;
64894;SDS011;51588;53.702;10.208;2024-01-11T00:56:06;2.83;;;2.13;;
64894;SDS011;51588;53.702;10.208;2024-01-11T00:58:40;2.27;;;2.07;;
64894;SDS011;51588;53.702;10.208;2024-01-11T01:01:08;2.20;;;1.83;;
64894;SDS011;51588;53.702;10.208;2024-01-11T01:03:34;2.17;;;1.97;;
64894;SDS011;51588;53.702;10.208;2024-01-11T01:06:03;2.20;;;2.00;;
64894;SDS011;51588;53.702;10.208;2024-01-11T01:08:32;2.77;;;1.87;;
64894;SDS011;51588;53.702;10.208;2024-01-11T01:10:58;1.90;;;1.80;;
64894;SDS011;51588;53.702;10.208;2024-01-11T01:13:24;2.40;;;2.20;;
64894;SDS011;51588;53.702;10.208;2024-01-11T01:15:51;2.30;;;2.10;;
64894;SDS011;51588;53.702;10.208;2024-01-11T01:18:17;2.20;;;2.00;;
64894;SDS011;51588;53.702;10.208;2024-01-11T01:20:44;2.10;;;1.90;;
64894;SDS011;51588;53.702;10.208;2024-01-11T01:23:10;2.10;;;1.90;;
64894;SDS011;51588;53.702;10.208;2024-01-11T01:25:38;2.70;;;2.13;;
64894;SDS011;51588;53.702;10.208;2024-01-11T01:28:04;2.17;;;1.97;;
64894;SDS011;51588;53.702;10.208;2024-01-11T01:30:34;2.40;;;2.20;;
64894;SDS011;51588;53.702;10.208;2024-01-11T01:33:01;4.23;;;2.10;;
64894;SDS011;51588;53.702;10.208;2024-01-11T01:35:28;3.00;;;2.07;;
64894;SDS011;51588;53.702;10.208;2024-01-11T01:37:55;2.67;;;2.10;;
64894;SDS011;51588;53.702;10.208;2024-01-11T01:40:21;2.27;;;2.00;;
64894;SDS011;51588;53.702;10.208;2024-01-11T01:42:49;3.00;;;2.40;;
64894;SDS011;51588;53.702;10.208;2024-01-11T01:45:15;2.33;;;2.13;;
64894;SDS011;51588;53.702;10.208;2024-01-11T01:47:42;2.43;;;2.23;;
64894;SDS011;51588;53.702;10.208;2024-01-11T01:50:10;4.20;;;2.17;;
64894;SDS011;51588;53.702;10.208;2024-01-11T01:52:36;2.53;;;2.20;;
64894;SDS011;51588;53.702;10.208;2024-01-11T01:55:04;2.30;;;2.10;;
64894;SDS011;51588;53.702;10.208;2024-01-11T01:57:32;2.43;;;2.23;;
64894;SDS011;51588;53.702;10.208;2024-01-11T02:00:07;2.47;;;2.27;;
64894;SDS011;51588;53.702;10.208;2024-01-11T02:02:35;2.40;;;2.20;;
64894;SDS011;51588;53.702;10.208;2024-01-11T02:05:03;1.67;;;1.57;;
64894;SDS011;51588;53.702;10.208;2024-01-11T02:07:30;2.43;;;2.23;;
64894;SDS011;51588;53.702;10.208;2024-01-11T02:09:57;2.20;;;2.00;;
64894;SDS011;51588;53.702;10.208;2024-01-11T02:12:24;2.33;;;2.13;;
64894;SDS011;51588;53.702;10.208;2024-01-11T02:14:52;2.00;;;1.90;;
64894;SDS011;51588;53.702;10.208;2024-01-11T02:17:20;2.10;;;1.90;;
64894;SDS011;51588;53.702;10.208;2024-01-11T02:19:46;2.13;;;1.93;;
64894;SDS011;51588;53.702;10.208;2024-01-11T02:22:15;2.67;;;2.20;;
64894;SDS011;51588;53.702;10.208;2024-01-11T02:24:44;2.30;;;2.00;;
64894;SDS011;51588;53.702;10.208;2024-01-11T02:27:11;2.47;;;2.00;;
64894;SDS011;51588;53.702;10.208;2024-01-11T02:29:37;2.30;;;2.10;;
64894;SDS011;51588;53.702;10.208;2024-01-11T02:32:03;2.03;;;1.90;;
64894;SDS011;51588;53.702;10.208;2024-01-11T02:34:31;2.10;;;1.90;;
64894;SDS011;51588;53.702;10.208;2024-01-11T02:36:58;2.53;;;2.33;;
64894;SDS011;51588;53.702;10.208;2024-01-11T02:39:24;2.20;;;2.00;;
64894;SDS011;51588;53.702;10.208;2024-01-11T02:41:53;2.40;;;2.00;;
64894;SDS011;51588;53.702;10.208;2024-01-11T02:44:19;1.90;;;1.80;;
64894;SDS011;51588;53.702;10.208;2024-01-11T02:46:46;2.63;;;1.97;;
64894;SDS011;51588;53.702;10.208;2024-01-11T02:49:12;1.80;;;1.70;;
64894;SDS011;51588;53.702;10.208;2024-01-11T02:51:38;2.00;;;1.80;;
64894;SDS011;51588;53.702;10.208;2024-01-11T02:54:05;2.10;;;1.83;;
64894;SDS011;51588;53.702;10.208;2024-01-11T02:56:31;2.70;;;1.60;;
64894;SDS011;51588;53.702;10.208;2024-01-11T02:58:59;1.80;;;1.67;;
64894;SDS011;51588;53.702;10.208;2024-01-11T03:01:25;1.63;;;1.53;;
64894;SDS011;51588;53.702;10.208;2024-01-11T03:03:52;1.93;;;1.83;;
64894;SDS011;51588;53.702;10.208;2024-01-11T03:06:18;2.00;;;1.80;;
64894;SDS011;51588;53.702;10.208;2024-01-11T03:08:46;2.20;;;2.00;;
64894;SDS011;51588;53.702;10.208;2024-01-11T03:11:13;1.60;;;1.50;;
64894;SDS011;51588;53.702;10.208;2024-01-11T03:13:39;1.70;;;1.60;;
64894;SDS011;51588;53.702;10.208;2024-01-11T03:16:07;1.67;;;1.57;;
64894;SDS011;51588;53.702;10.208;2024-01-11T03:18:33;2.20;;;1.70;;
64894;SDS011;51588;53.702;10.208;2024-01-11T03:21:00;2.03;;;1.83;;
64894;SDS011;51588;53.702;10.208;2024-01-11T03:23:26;1.70;;;1.60;;
64894;SDS011;51588;53.702;10.208;2024-01-11T03:25:52;1.97;;;1.80;;
64894;SDS011;51588;53.702;10.208;2024-01-11T03:28:25;1.87;;;1.73;;
64894;SDS011;51588;53.702;10.208;2024-01-11T03:30:51;1.80;;;1.70;;
64894;SDS011;51588;53.702;10.208;2024-01-11T03:33:19;1.57;;;1.47;;
64894;SDS011;51588;53.702;10.208;2024-01-11T03:35:49;2.40;;;1.90;;
64894;SDS011;51588;53.702;10.208;2024-01-11T03:38:15;2.03;;;1.83;;
64894;SDS011;51588;53.702;10.208;2024-01-11T03:40:41;1.93;;;1.70;;
64894;SDS011;51588;53.702;10.208;2024-01-11T03:43:08;2.10;;;1.90;;
64894;SDS011;51588;53.702;10.208;2024-01-11T03:45:34;1.70;;;1.60;;
64894;SDS011;51588;53.702;10.208;2024-01-11T03:48:00;1.77;;;1.67;;
64894;SDS011;51588;53.702;10.208;2024-01-11T03:50:28;2.43;;;1.67;;
64894;SDS011;51588;53.702;10.208;2024-01-11T03:52:54;1.60;;;1.50;;
64894;SDS011;51588;53.702;10.208;2024-01-11T03:55:21;2.00;;;1.80;;
64894;SDS011;51588;53.702;10.208;2024-01-11T03:57:50;1.80;;;1.70;;
64894;SDS011;51588;53.702;10.208;2024-01-11T04:00:17;1.67;;;1.57;;
64894;SDS011;51588;53.702;10.208;2024-01-11T04:02:44;1.60;;;1.50;;
64894;SDS011;51588;53.702;10.208;2024-01-11T04:05:13;1.83;;;1.60;;
64894;SDS011;51588;53.702;10.208;2024-01-11T04:07:41;1.80;;;1.70;;
64894;SDS011;51588;53.702;10.208;2024-01-11T04:10:08;1.70;;;1.60;;
64894;SDS011;51588;53.702;10.208;2024-01-11T04:12:35;1.70;;;1.60;;
64894;SDS011;51588;53.702;10.208;2024-01-11T04:15:03;1.73;;;1.50;;
64894;SDS011;51588;53.702;10.208;2024-01-11T04:17:33;1.40;;;1.30;;
64894;SDS011;51588;53.702;10.208;2024-01-11T04:20:06;1.87;;;1.70;;
64894;SDS011;51588;53.702;10.208;2024-01-11T04:22:33;1.80;;;1.70;;
64894;SDS011;51588;53.702;10.208;2024-01-11T04:25:01;1.63;;;1.53;;
64894;SDS011;51588;53.702;10.208;2024-01-11T04:27:27;1.60;;;1.50;;
64894;SDS011;51588;53.702;10.208;2024-01-11T04:29:54;1.57;;;1.47;;
64894;SDS011;51588;53.702;10.208;2024-01-11T04:32:20;1.80;;;1.70;;
64894;SDS011;51588;53.702;10.208;2024-01-11T04:34:46;2.20;;;1.80;;
64894;SDS011;51588;53.702;10.208;2024-01-11T04:37:13;2.07;;;1.90;;
64894;SDS011;51588;53.702;10.208;2024-01-11T04:39:42;1.50;;;1.40;;
64894;SDS011;51588;53.702;10.208;2024-01-11T04:42:13;1.77;;;1.67;;
64894;SDS011;51588;53.702;10.208;2024-01-11T04:44:39;1.70;;;1.60;;
64894;SDS011;51588;53.702;10.208;2024-01-11T04:47:09;1.90;;;1.80;;
64894;SDS011;51588;53.702;10.208;2024-01-11T04:49:35;1.50;;;1.40;;
64894;SDS011;51588;53.702;10.208;2024-01-11T04:52:04;1.87;;;1.77;;
64894;SDS011;51588;53.702;10.208;2024-01-11T04:54:31;1.87;;;1.77;;
64894;SDS011;51588;53.702;10.208;2024-01-11T04:56:57;1.67;;;1.57;;
64894;SDS011;51588;53.702;10.208;2024-01-11T04:59:31;1.70;;;1.60;;
64894;SDS011;51588;53.702;10.208;2024-01-11T05:01:57;1.67;;;1.40;;
64894;SDS011;51588;53.702;10.208;2024-01-11T05:04:24;1.63;;;1.53;;
64894;SDS011;51588;53.702;10.208;2024-01-11T05:06:50;1.83;;;1.63;;
64894;SDS011;51588;53.702;10.208;2024-01-11T05:09:17;1.60;;;1.50;;
64894;SDS011;51588;53.702;10.208;2024-01-11T05:11:46;1.73;;;1.53;;
64894;SDS011;51588;53.702;10.208;2024-01-11T05:14:12;1.77;;;1.67;;
64894;SDS011;51588;53.702;10.208;2024-01-11T05:16:40;1.70;;;1.60;;
64894;SDS011;51588;53.702;10.208;2024-01-11T05:19:10;1.70;;;1.60;;
64894;SDS011;51588;53.702;10.208;2024-01-11T05:21:36;1.50;;;1.30;;
64894;SDS011;51588;53.702;10.208;2024-01-11T05:24:05;1.80;;;1.70;;
64894;SDS011;51588;53.702;10.208;2024-01-11T05:26:32;1.83;;;1.73;;
64894;SDS011;51588;53.702;10.208;2024-01-11T05:28:58;1.63;;;1.53;;
64894;SDS011;51588;53.702;10.208;2024-01-11T05:31:25;1.63;;;1.53;;
64894;SDS011;51588;53.702;10.208;2024-01-11T05:33:52;1.70;;;1.60;;
64894;SDS011;51588;53.702;10.208;2024-01-11T05:36:19;1.60;;;1.50;;
64894;SDS011;51588;53.702;10.208;2024-01-11T05:38:45;1.80;;;1.70;;
64894;SDS011;51588;53.702;10.208;2024-01-11T05:41:11;1.80;;;1.70;;
64894;SDS011;51588;53.702;10.208;2024-01-11T05:43:38;1.50;;;1.40;;
64894;SDS011;51588;53.702;10.208;2024-01-11T05:46:04;1.50;;;1.40;;
64894;SDS011;51588;53.702;10.208;2024-01-11T05:48:32;1.70;;;1.60;;
64894;SDS011;51588;53.702;10.208;2024-01-11T05:51:00;1.60;;;1.50;;
64894;SDS011;51588;53.702;10.208;2024-01-11T05:53:26;1.50;;;1.40;;
64894;SDS011;51588;53.702;10.208;2024-01-11T05:55:52;1.73;;;1.63;;
64894;SDS011;51588;53.702;10.208;2024-01-11T05:58:19;1.63;;;1.50;;
64894;SDS011;51588;53.702;10.208;2024-01-11T06:00:51;1.53;;;1.43;;
64894;SDS011;51588;53.702;10.208;2024-01-11T06:03:21;1.40;;;1.30;;
64894;SDS011;51588;53.702;10.208;2024-01-11T06:05:48;1.73;;;1.63;;
64894;SDS011;51588;53.702;10.208;2024-01-11T06:08:15;2.40;;;1.43;;
64894;SDS011;51588;53.702;10.208;2024-01-11T06:10:42;3.50;;;1.77;;
64894;SDS011;51588;53.702;10.208;2024-01-11T06:13:08;7.40;;;2.40;;
64894;SDS011;51588;53.702;10.208;2024-01-11T06:15:34;15.73;;;3.90;;
64894;SDS011;51588;53.702;10.208;2024-01-11T06:18:01;10.07;;;4.10;;
64894;SDS011;51588;53.702;10.208;2024-01-11T06:20:27;13.43;;;3.93;;
64894;SDS011;51588;53.702;10.208;2024-01-11T06:22:54;9.10;;;3.17;;
64894;SDS011;51588;53.702;10.208;2024-01-11T06:25:21;8.40;;;3.30;;
64894;SDS011;51588;53.702;10.208;2024-01-11T06:27:48;16.07;;;3.60;;
64894;SDS011;51588;53.702;10.208;2024-01-11T06:30:14;20.63;;;4.00;;
64894;SDS011;51588;53.702;10.208;2024-01-11T06:32:40;15.80;;;4.67;;
64894;SDS011;51588;53.702;10.208;2024-01-11T06:35:07;16.10;;;3.60;;
64894;SDS011;51588;53.702;10.208;2024-01-11T06:37:33;11.23;;;3.80;;
64894;SDS011;51588;53.702;10.208;2024-01-11T06:40:00;14.93;;;3.40;;
64894;SDS011;51588;53.702;10.208;2024-01-11T06:42:30;12.83;;;3.90;;
64894;SDS011;51588;53.702;10.208;2024-01-11T06:45:04;12.40;;;3.17;;
64894;SDS011;51588;53.702;10.208;2024-01-11T06:47:30;8.80;;;3.20;;
64894;SDS011;51588;53.702;10.208;2024-01-11T06:49:57;13.33;;;3.67;;
64894;SDS011;51588;53.702;10.208;2024-01-11T06:52:24;11.90;;;3.20;;
64894;SDS011;51588;53.702;10.208;2024-01-11T06:54:51;8.73;;;3.30;;
64894;SDS011;51588;53.702;10.208;2024-01-11T06:57:20;6.70;;;2.60;;
64894;SDS011;51588;53.702;10.208;2024-01-11T06:59:48;9.10;;;2.80;;
64894;SDS011;51588;53.702;10.208;2024-01-11T07:02:15;12.23;;;2.57;;
64894;SDS011;51588;53.702;10.208;2024-01-11T07:04:43;11.47;;;2.50;;
64894;SDS011;51588;53.702;10.208;2024-01-11T07:07:09;6.43;;;2.90;;
64894;SDS011;51588;53.702;10.208;2024-01-11T07:09:36;7.73;;;2.63;;
64894;SDS011;51588;53.702;10.208;2024-01-11T07:12:02;11.97;;;2.93;;
64894;SDS011;51588;53.702;10.208;2024-01-11T07:14:29;7.20;;;2.97;;
64894;SDS011;51588;53.702;10.208;2024-01-11T07:16:57;6.80;;;2.60;;
64894;SDS011;51588;53.702;10.208;2024-01-11T07:19:23;6.27;;;2.20;;
64894;SDS011;51588;53.702;10.208;2024-01-11T07:21:49;6.23;;;2.10;;
64894;SDS011;51588;53.702;10.208;2024-01-11T07:24:16;5.47;;;2.23;;
64894;SDS011;51588;53.702;10.208;2024-01-11T07:26:43;4.13;;;2.30;;
64894;SDS011;51588;53.702;10.208;2024-01-11T07:29:13;3.60;;;2.10;;
64894;SDS011;51588;53.702;10.208;2024-01-11T07:31:40;5.10;;;2.27;;
64894;SDS011;51588;53.702;10.208;2024-01-11T07:34:07;4.80;;;2.10;;
64894;SDS011;51588;53.702;10.208;2024-01-11T07:36:34;8.37;;;2.40;;
64894;SDS011;51588;53.702;10.208;2024-01-11T07:39:00;4.93;;;2.20;;
64894;SDS011;51588;53.702;10.208;2024-01-11T07:41:27;6.73;;;2.40;;
64894;SDS011;51588;53.702;10.208;2024-01-11T07:43:59;3.50;;;2.07;;
64894;SDS011;51588;53.702;10.208;2024-01-11T07:46:25;4.20;;;1.80;;
64894;SDS011;51588;53.702;10.208;2024-01-11T07:48:54;5.90;;;2.00;;
64894;SDS011;51588;53.702;10.208;2024-01-11T07:51:21;4.37;;;1.77;;
64894;SDS011;51588;53.702;10.208;2024-01-11T07:53:51;3.17;;;2.20;;
64894;SDS011;51588;53.702;10.208;2024-01-11T07:56:18;4.90;;;2.10;;
64894;SDS011;51588;53.702;10.208;2024-01-11T07:58:44;4.17;;;2.00;;
64894;SDS011;51588;53.702;10.208;2024-01-11T08:01:13;4.60;;;1.93;;
64894;SDS011;51588;53.702;10.208;2024-01-11T08:03:41;3.93;;;2.03;;
64894;SDS011;51588;53.702;10.208;2024-01-11T08:06:16;3.43;;;1.93;;
64894;SDS011;51588;53.702;10.208;2024-01-11T08:08:43;5.10;;;2.07;;
64894;SDS011;51588;53.702;10.208;2024-01-11T08:11:16;3.60;;;1.90;;
64894;SDS011;51588;53.702;10.208;2024-01-11T08:13:42;3.70;;;2.00;;
64894;SDS011;51588;53.702;10.208;2024-01-11T08:16:09;4.40;;;1.97;;
64894;SDS011;51588;53.702;10.208;2024-01-11T08:18:41;4.00;;;2.03;;
64894;SDS011;51588;53.702;10.208;2024-01-11T08:21:08;3.00;;;1.70;;
64894;SDS011;51588;53.702;10.208;2024-01-11T08:23:41;3.00;;;1.60;;
64894;SDS011;51588;53.702;10.208;2024-01-11T08:26:11;3.67;;;1.93;;
64894;SDS011;51588;53.702;10.208;2024-01-11T08:28:38;2.63;;;1.80;;
64894;SDS011;51588;53.702;10.208;2024-01-11T08:31:05;3.27;;;1.83;;
64894;SDS011;51588;53.702;10.208;2024-01-11T08:33:31;5.20;;;2.00;;
64894;SDS011;51588;53.702;10.208;2024-01-11T08:35:58;4.83;;;1.53;;
64894;SDS011;51588;53.702;10.208;2024-01-11T08:38:24;3.40;;;1.60;;
64894;SDS011;51588;53.702;10.208;2024-01-11T08:40:50;3.37;;;1.80;;
64894;SDS011;51588;53.702;10.208;2024-01-11T08:43:18;2.17;;;1.77;;
64894;SDS011;51588;53.702;10.208;2024-01-11T08:45:44;1.93;;;1.50;;
64894;SDS011;51588;53.702;10.208;2024-01-11T08:48:11;3.13;;;1.50;;
64894;SDS011;51588;53.702;10.208;2024-01-11T08:50:38;3.60;;;2.07;;
64894;SDS011;51588;53.702;10.208;2024-01-11T08:53:04;3.97;;;1.97;;
64894;SDS011;51588;53.702;10.208;2024-01-11T08:55:33;5.00;;;2.00;;
64894;SDS011;51588;53.702;10.208;2024-01-11T08:58:00;2.77;;;1.90;;
64894;SDS011;51588;53.702;10.208;2024-01-11T09:00:27;2.90;;;1.93;;
64894;SDS011;51588;53.702;10.208;2024-01-11T09:02:54;3.03;;;1.60;;
64894;SDS011;51588;53.702;10.208;2024-01-11T09:05:21;3.77;;;1.77;;
64894;SDS011;51588;53.702;10.208;2024-01-11T09:07:50;3.77;;;1.97;;
64894;SDS011;51588;53.702;10.208;2024-01-11T09:10:22;3.07;;;1.67;;
64894;SDS011;51588;53.702;10.208;2024-01-11T09:12:53;3.43;;;1.70;;
64894;SDS011;51588;53.702;10.208;2024-01-11T09:15:20;3.67;;;1.80;;
64894;SDS011;51588;53.702;10.208;2024-01-11T09:17:48;3.87;;;1.67;;
64894;SDS011;51588;53.702;10.208;2024-01-11T09:20:15;5.13;;;1.87;;
64894;SDS011;51588;53.702;10.208;2024-01-11T09:22:41;3.57;;;1.73;;
64894;SDS011;51588;53.702;10.208;2024-01-11T09:25:14;3.23;;;2.00;;
64894;SDS011;51588;53.702;10.208;2024-01-11T09:27:40;2.90;;;1.90;;
64894;SDS011;51588;53.702;10.208;2024-01-11T09:30:07;3.63;;;1.67;;
64894;SDS011;51588;53.702;10.208;2024-01-11T09:32:34;5.60;;;1.70;;
64894;SDS011;51588;53.702;10.208;2024-01-11T09:35:04;2.70;;;1.80;;
64894;SDS011;51588;53.702;10.208;2024-01-11T09:37:31;2.10;;;1.50;;
64894;SDS011;51588;53.702;10.208;2024-01-11T09:39:57;2.47;;;2.00;;
64894;SDS011;51588;53.702;10.208;2024-01-11T09:42:25;8.17;;;1.73;;
64894;SDS011;51588;53.702;10.208;2024-01-11T09:44:55;4.03;;;1.70;;
64894;SDS011;51588;53.702;10.208;2024-01-11T09:47:22;3.47;;;1.87;;
64894;SDS011;51588;53.702;10.208;2024-01-11T09:49:53;5.87;;;1.93;;
64894;SDS011;51588;53.702;10.208;2024-01-11T09:52:24;2.80;;;1.63;;
64894;SDS011;51588;53.702;10.208;2024-01-11T09:54:52;5.83;;;1.87;;
64894;SDS011;51588;53.702;10.208;2024-01-11T09:57:22;3.00;;;1.70;;
64894;SDS011;51588;53.702;10.208;2024-01-11T09:59:50;2.13;;;1.60;;
64894;SDS011;51588;53.702;10.208;2024-01-11T10:02:22;2.53;;;1.93;;
64894;SDS011;51588;53.702;10.208;2024-01-11T10:04:49;3.17;;;2.00;;
64894;SDS011;51588;53.702;10.208;2024-01-11T10:07:17;5.07;;;2.03;;
64894;SDS011;51588;53.702;10.208;2024-01-11T10:09:47;2.97;;;1.73;;
64894;SDS011;51588;53.702;10.208;2024-01-11T10:12:17;3.27;;;1.97;;
64894;SDS011;51588;53.702;10.208;2024-01-11T10:14:45;3.77;;;2.10;;
64894;SDS011;51588;53.702;10.208;2024-01-11T10:17:20;2.10;;;1.60;;
64894;SDS011;51588;53.702;10.208;2024-01-11T10:19:46;4.70;;;1.70;;
64894;SDS011;51588;53.702;10.208;2024-01-11T10:22:13;3.83;;;1.77;;
64894;SDS011;51588;53.702;10.208;2024-01-11T10:24:42;2.10;;;1.70;;
64894;SDS011;51588;53.702;10.208;2024-01-11T10:27:15;2.70;;;1.63;;
64894;SDS011;51588;53.702;10.208;2024-01-11T10:29:41;2.27;;;1.67;;
64894;SDS011;51588;53.702;10.208;2024-01-11T10:32:08;2.80;;;1.70;;
64894;SDS011;51588;53.702;10.208;2024-01-11T10:34:39;3.03;;;1.63;;
64894;SDS011;51588;53.702;10.208;2024-01-11T10:37:06;3.20;;;1.60;;
64894;SDS011;51588;53.702;10.208;2024-01-11T10:39:35;3.97;;;2.00;;
64894;SDS011;51588;53.702;10.208;2024-01-11T10:42:04;2.03;;;1.50;;
64894;SDS011;51588;53.702;10.208;2024-01-11T10:44:33;2.60;;;2.03;;
64894;SDS011;51588;53.702;10.208;2024-01-11T10:47:02;2.30;;;1.67;;
64894;SDS011;51588;53.702;10.208;2024-01-11T10:49:28;2.13;;;1.80;;
64894;SDS011;51588;53.702;10.208;2024-01-11T10:51:59;2.33;;;1.63;;
64894;SDS011;51588;53.702;10.208;2024-01-11T10:54:28;4.33;;;1.63;;
64894;SDS011;51588;53.702;10.208;2024-01-11T10:56:56;4.23;;;1.70;;
64894;SDS011;51588;53.702;10.208;2024-01-11T10:59:22;1.70;;;1.50;;
64894;SDS011;51588;53.702;10.208;2024-01-11T11:01:55;2.90;;;1.90;;
64894;SDS011;51588;53.702;10.208;2024-01-11T11:04:22;2.37;;;1.90;;
64894;SDS011;51588;53.702;10.208;2024-01-11T11:06:51;2.97;;;2.10;;
64894;SDS011;51588;53.702;10.208;2024-01-11T11:09:20;2.67;;;1.80;;
64894;SDS011;51588;53.702;10.208;2024-01-11T11:11:48;2.60;;;2.20;;
64894;SDS011;51588;53.702;10.208;2024-01-11T11:14:15;3.90;;;2.07;;
64894;SDS011;51588;53.702;10.208;2024-01-11T11:16:42;2.17;;;1.90;;
64894;SDS011;51588;53.702;10.208;2024-01-11T11:19:12;3.20;;;1.90;;
64894;SDS011;51588;53.702;10.208;2024-01-11T11:21:41;3.00;;;1.93;;
64894;SDS011;51588;53.702;10.208;2024-01-11T11:24:07;4.40;;;2.17;;
64894;SDS011;51588;53.702;10.208;2024-01-11T11:26:34;4.23;;;1.97;;
64894;SDS011;51588;53.702;10.208;2024-01-11T11:29:00;3.70;;;2.20;;
64894;SDS011;51588;53.702;10.208;2024-01-11T11:31:36;4.70;;;2.20;;
64894;SDS011;51588;53.702;10.208;2024-01-11T11:34:03;2.83;;;2.20;;
64894;SDS011;51588;53.702;10.208;2024-01-11T11:36:32;6.73;;;2.10;;
64894;SDS011;51588;53.702;10.208;2024-01-11T11:38:59;3.57;;;1.83;;
64894;SDS011;51588;53.702;10.208;2024-01-11T11:41:26;3.00;;;1.80;;
64894;SDS011;51588;53.702;10.208;2024-01-11T11:43:52;2.70;;;2.10;;
64894;SDS011;51588;53.702;10.208;2024-01-11T11:46:18;5.00;;;2.00;;
64894;SDS011;51588;53.702;10.208;2024-01-11T11:48:48;2.20;;;2.00;;
64894;SDS011;51588;53.702;10.208;2024-01-11T11:51:15;3.37;;;2.47;;
64894;SDS011;51588;53.702;10.208;2024-01-11T11:53:43;2.70;;;2.00;;
64894;SDS011;51588;53.702;10.208;2024-01-11T11:56:09;2.47;;;2.07;;
64894;SDS011;51588;53.702;10.208;2024-01-11T11:58:40;2.73;;;1.70;;
64894;SDS011;51588;53.702;10.208;2024-01-11T12:01:11;3.33;;;1.80;;
64894;SDS011;51588;53.702;10.208;2024-01-11T12:03:41;4.63;;;2.00;;
64894;SDS011;51588;53.702;10.208;2024-01-11T12:06:11;3.63;;;2.03;;
64894;SDS011;51588;53.702;10.208;2024-01-11T12:08:40;2.40;;;2.20;;
64894;SDS011;51588;53.702;10.208;2024-01-11T12:11:08;2.93;;;2.20;;
64894;SDS011;51588;53.702;10.208;2024-01-11T12:13:38;3.33;;;2.20;;
64894;SDS011;51588;53.702;10.208;2024-01-11T12:16:05;3.93;;;2.57;;
64894;SDS011;51588;53.702;10.208;2024-01-11T12:18:32;3.30;;;2.17;;
64894;SDS011;51588;53.702;10.208;2024-01-11T12:21:04;4.93;;;2.37;;
64894;SDS011;51588;53.702;10.208;2024-01-11T12:23:31;3.97;;;2.00;;
64894;SDS011;51588;53.702;10.208;2024-01-11T12:25:58;2.17;;;1.77;;
64894;SDS011;51588;53.702;10.208;2024-01-11T12:28:26;3.40;;;1.80;;
64894;SDS011;51588;53.702;10.208;2024-01-11T12:30:52;4.53;;;2.07;;
64894;SDS011;51588;53.702;10.208;2024-01-11T12:33:19;3.50;;;1.97;;
64894;SDS011;51588;53.702;10.208;2024-01-11T12:35:45;2.63;;;2.10;;
64894;SDS011;51588;53.702;10.208;2024-01-11T12:38:12;2.90;;;2.03;;
64894;SDS011;51588;53.702;10.208;2024-01-11T12:40:39;4.10;;;2.07;;
64894;SDS011;51588;53.702;10.208;2024-01-11T12:43:07;2.33;;;2.10;;
64894;SDS011;51588;53.702;10.208;2024-01-11T12:45:35;4.47;;;2.17;;
64894;SDS011;51588;53.702;10.208;2024-01-11T12:48:02;4.17;;;2.20;;
64894;SDS011;51588;53.702;10.208;2024-01-11T12:50:28;3.00;;;2.00;;
64894;SDS011;51588;53.702;10.208;2024-01-11T12:53:07;5.10;;;2.13;;
64894;SDS011;51588;53.702;10.208;2024-01-11T12:55:33;2.37;;;1.83;;
64894;SDS011;51588;53.702;10.208;2024-01-11T12:58:04;5.33;;;1.93;;
64894;SDS011;51588;53.702;10.208;2024-01-11T13:00:30;4.03;;;1.83;;
64894;SDS011;51588;53.702;10.208;2024-01-11T13:02:58;4.40;;;2.00;;
64894;SDS011;51588;53.702;10.208;2024-01-11T13:05:25;2.67;;;1.67;;
64894;SDS011;51588;53.702;10.208;2024-01-11T13:07:51;3.83;;;2.23;;
64894;SDS011;51588;53.702;10.208;2024-01-11T13:10:18;2.53;;;2.33;;
64894;SDS011;51588;53.702;10.208;2024-01-11T13:12:44;3.13;;;1.63;;
64894;SDS011;51588;53.702;10.208;2024-01-11T13:15:11;1.80;;;1.60;;
64894;SDS011;51588;53.702;10.208;2024-01-11T13:17:38;1.93;;;1.60;;
64894;SDS011;51588;53.702;10.208;2024-01-11T13:20:06;2.57;;;2.10;;
64894;SDS011;51588;53.702;10.208;2024-01-11T13:22:32;2.37;;;2.07;;
64894;SDS011;51588;53.702;10.208;2024-01-11T13:24:59;2.50;;;2.13;;
64894;SDS011;51588;53.702;10.208;2024-01-11T13:27:26;2.40;;;1.90;;
64894;SDS011;51588;53.702;10.208;2024-01-11T13:29:52;3.13;;;2.00;;
64894;SDS011;51588;53.702;10.208;2024-01-11T13:32:18;2.20;;;2.00;;
64894;SDS011;51588;53.702;10.208;2024-01-11T13:34:47;3.00;;;2.13;;
64894;SDS011;51588;53.702;10.208;2024-01-11T13:37:15;2.87;;;2.17;;
64894;SDS011;51588;53.702;10.208;2024-01-11T13:39:41;4.20;;;2.10;;
64894;SDS011;51588;53.702;10.208;2024-01-11T13:42:07;4.40;;;1.80;;
64894;SDS011;51588;53.702;10.208;2024-01-11T13:44:34;2.50;;;2.30;;
64894;SDS011;51588;53.702;10.208;2024-01-11T13:47:01;3.70;;;2.00;;
64894;SDS011;51588;53.702;10.208;2024-01-11T13:49:28;4.87;;;2.20;;
64894;SDS011;51588;53.702;10.208;2024-01-11T13:51:54;2.93;;;2.07;;
64894;SDS011;51588;53.702;10.208;2024-01-11T13:54:22;5.30;;;2.40;;
64894;SDS011;51588;53.702;10.208;2024-01-11T13:56:49;3.37;;;1.87;;
64894;SDS011;51588;53.702;10.208;2024-01-11T13:59:16;2.43;;;2.10;;
64894;SDS011;51588;53.702;10.208;2024-01-11T14:01:43;2.17;;;1.60;;
64894;SDS011;51588;53.702;10.208;2024-01-11T14:04:09;2.57;;;1.97;;
64894;SDS011;51588;53.702;10.208;2024-01-11T14:06:36;1.83;;;1.70;;
64894;SDS011;51588;53.702;10.208;2024-01-11T14:09:05;1.80;;;1.40;;
64894;SDS011;51588;53.702;10.208;2024-01-11T14:11:35;2.90;;;1.97;;
64894;SDS011;51588;53.702;10.208;2024-01-11T14:14:02;3.30;;;2.00;;
64894;SDS011;51588;53.702;10.208;2024-01-11T14:16:31;2.63;;;2.17;;
64894;SDS011;51588;53.702;10.208;2024-01-11T14:18:58;2.13;;;1.80;;
64894;SDS011;51588;53.702;10.208;2024-01-11T14:21:28;2.73;;;1.93;;
64894;SDS011;51588;53.702;10.208;2024-01-11T14:23:54;4.57;;;1.80;;
64894;SDS011;51588;53.702;10.208;2024-01-11T14:26:20;2.73;;;2.00;;
64894;SDS011;51588;53.702;10.208;2024-01-11T14:28:48;5.70;;;2.00;;
64894;SDS011;51588;53.702;10.208;2024-01-11T14:31:16;2.73;;;2.03;;
64894;SDS011;51588;53.702;10.208;2024-01-11T14:33:42;2.50;;;1.97;;
64894;SDS011;51588;53.702;10.208;2024-01-11T14:36:12;2.27;;;1.90;;